• pl
  • eng

Awiacja
Komunikaty METAR z lotnisk wojskowych. 00:01 17.12.2018

METAR EPCE 162300Z 14003KT 9999 OVC028 M02/M04
Q1017 RMK M019 087 8/8 =

METAR EPDA 162300Z 15004KT 100V200 9999 OVC027 M01/M04
Q1017 RMK M006 078 8/8 =

METAR EPDE 162300Z AUTO 08002KT 7000 VV017 M02/M04 Q1020 RMK M020 089
///=

METAR COR EPIR 162300Z 12006KT 8000 BKN024 M03/M04 Q1018 RMK M027 092
7/7 =

METAR EPKS 162300Z 11007KT 9999 BKN100 M03/M05 Q1017 RMK M027
086 8/7=

METAR EPLK 162300Z AUTO 13006KT 9999 OVC025/// M03/M06 Q1018 RMK
M034 085 8/8=

METAR EPLY 162300Z 12004KT 9999 BKN025 M02/M04 Q1019 RMK M018 085
7/7=

METAR EPMB 162300Z 18005KT 8000 SCT015 OVC030 M01/M02 Q1019 RMK M009
092 8/4=

METAR EPMI 162300Z 14006KT 9999 BKN020 M02/M07 Q1016 RMK M022 072
7/7=

METAR EPMM 162300Z 16004KT 120V190 9999 OVC025 M02/M03 Q1020 RMK
M020 090 8/8=

METAR EPNA 162300Z NIL=

METAR EPOK 162300Z 19004KT 9999 OVC029 M01/M03
Q1018 RMK M007 081 8/8 =

METAR EPPR 162300Z NIL=

METAR EPPW 162300Z 11006KT 6000 BKN024 M03/M04 Q1017 RMK M026 087
7/7=

METAR EPRA 162300Z 15002KT 6000 BKN020 M05/M06 Q1020 RMK M054 098
7/7=

METAR EPSN 162300Z 17006KT 9999 BKN019 M02/M06 Q1016 RMK M016 072
7/7=

METAR EPTM 162300Z NIL=
 METAR EPSN
Lokalizacja:EPSN Świdwin
Czas:23:00 UTC
Średni kierunek wiatru:170 °
Średnia prędkość wiatru:6 węzłów
Widzialność:10 km i więcej
Pierwsza warstwa chmur:5/8 do 7/8, wysokość podstawy 1900 FT
Temperatura powietrza:-2 °C
Temperatura punktu rosy:-6 °C
Ciśnienie QNH:1016 hPa
Dokładna temperatura powietrza:-1,6 °C
Dokładna wilgotność względna:72 %
Zachmurzenie przez wszystkie piętra chmur:7/8
Zachmurzenie przez chmury niskie:7/8
Awiacja.imgw.pl jest pogodowym serwisem informacyjnym
Instytutu Meteorologii i Gospodarki Wodnej Państwowego Instytutu Badawczego.
Copyright IMGW PIB 2009-2011© Wszelkie prawa zastrzeżone.